Time;durP1;ratioP1;P1;durP2;ratioP2;P2;SDS_P1;SDS_P2;PMS_P1;PMS_P2;Temp;Humidity;BMP_temperature;BMP_pressure;BME280_temperature;BME280_humidity;BME280_pressure;Samples;Min_cycle;Max_cycle;Signal;HPM_P1;HPM_P2
2023/10/31 00:02:14;;;;;;;0.50;0.50;;;;;;;;;;5094448;28;20201;-87
2023/10/31 00:04:43;;;;;;;0.50;0.50;;;;;;;;;;5094460;28;20217;-86
2023/10/31 00:07:11;;;;;;;0.60;0.60;;;;;;;;;;5093867;28;20245;-87
2023/10/31 00:09:40;;;;;;;11.53;2.40;;;;;;;;;;5093212;28;20205;-87
2023/10/31 00:12:08;;;;;;;2.47;1.50;;;;;;;;;;5094134;28;20205;-87
2023/10/31 00:14:37;;;;;;;1.83;1.40;;;;;;;;;;5094025;28;20193;-87
2023/10/31 00:17:06;;;;;;;4.57;1.57;;;;;;;;;;5093793;28;20232;-87
2023/10/31 00:19:35;;;;;;;3.30;2.50;;;;;;;;;;5093832;28;20227;-87
2023/10/31 00:22:03;;;;;;;4.87;2.23;;;;;;;;;;5094225;28;20218;-87
2023/10/31 00:24:32;;;;;;;0.90;0.90;;;;;;;;;;5093970;28;20208;-87
2023/10/31 00:27:00;;;;;;;4.63;3.07;;;;;;;;;;5093444;28;20231;-87
2023/10/31 00:29:29;;;;;;;2.33;2.13;;;;;;;;;;5093903;28;20268;-87
2023/10/31 00:31:57;;;;;;;3.13;1.70;;;;;;;;;;5093513;28;20246;-87
2023/10/31 00:34:27;;;;;;;2.97;2.83;;;;;;;;;;5094102;28;20268;-86
2023/10/31 00:36:55;;;;;;;0.77;0.77;;;;;;;;;;5093292;28;20202;-86
2023/10/31 00:39:24;;;;;;;0.57;0.57;;;;;;;;;;5093638;28;20202;-86
2023/10/31 00:41:52;;;;;;;0.50;0.50;;;;;;;;;;5093691;28;20203;-87
2023/10/31 00:44:20;;;;;;;0.40;0.40;;;;;;;;;;5093897;28;20208;-86
2023/10/31 00:46:49;;;;;;;0.40;0.40;;;;;;;;;;5092929;28;20201;-86
2023/10/31 00:49:17;;;;;;;0.40;0.40;;;;;;;;;;5094228;28;20232;-86
2023/10/31 00:51:47;;;;;;;0.40;0.40;;;;;;;;;;5093656;28;20223;-86
2023/10/31 00:54:16;;;;;;;0.53;0.53;;;;;;;;;;5093427;28;20273;-86
2023/10/31 00:56:44;;;;;;;0.87;0.87;;;;;;;;;;5092800;28;20212;-86
2023/10/31 00:59:13;;;;;;;0.60;0.60;;;;;;;;;;5093635;28;20228;-86
2023/10/31 01:01:41;;;;;;;0.70;0.70;;;;;;;;;;5093532;28;20200;-86
2023/10/31 01:04:10;;;;;;;2.80;1.30;;;;;;;;;;5092780;28;20207;-86
2023/10/31 01:06:41;;;;;;;0.40;0.40;;;;;;;;;;5092825;28;20197;-86
2023/10/31 01:09:13;;;;;;;0.83;0.83;;;;;;;;;;5093037;28;20226;-86
2023/10/31 01:11:41;;;;;;;0.60;0.60;;;;;;;;;;5093280;28;20197;-86
2023/10/31 01:14:09;;;;;;;0.83;0.63;;;;;;;;;;5092753;28;20266;-86
2023/10/31 01:16:38;;;;;;;2.83;1.37;;;;;;;;;;5092528;28;20207;-86
2023/10/31 01:19:07;;;;;;;2.47;1.47;;;;;;;;;;5093290;28;20259;-86
2023/10/31 01:21:35;;;;;;;0.80;0.80;;;;;;;;;;5092787;28;20231;-86
2023/10/31 01:24:04;;;;;;;5.77;1.63;;;;;;;;;;5092535;28;20214;-86
2023/10/31 01:26:35;;;;;;;6.83;1.70;;;;;;;;;;5092156;28;20232;-86
2023/10/31 01:29:04;;;;;;;1.93;0.93;;;;;;;;;;5092293;28;20224;-86
2023/10/31 01:31:33;;;;;;;4.70;1.73;;;;;;;;;;5092730;28;20228;-86
2023/10/31 01:34:06;;;;;;;2.90;2.70;;;;;;;;;;5092602;28;20292;-86
2023/10/31 01:36:35;;;;;;;1.60;1.10;;;;;;;;;;5091890;28;20287;-86
2023/10/31 01:39:04;;;;;;;0.90;0.73;;;;;;;;;;5092693;28;20219;-86
2023/10/31 01:41:33;;;;;;;1.03;1.03;;;;;;;;;;5092456;28;20201;-86
2023/10/31 01:44:02;;;;;;;0.70;0.70;;;;;;;;;;5092285;28;20197;-86
2023/10/31 01:46:30;;;;;;;4.93;0.93;;;;;;;;;;5092281;28;20301;-86
2023/10/31 01:48:59;;;;;;;0.60;0.60;;;;;;;;;;5092474;28;20224;-86
2023/10/31 01:51:28;;;;;;;1.20;0.87;;;;;;;;;;5092358;28;20193;-86
2023/10/31 01:53:57;;;;;;;8.77;1.30;;;;;;;;;;5092036;28;20204;-86
2023/10/31 01:56:26;;;;;;;0.50;0.50;;;;;;;;;;5091987;28;20215;-86
2023/10/31 01:58:55;;;;;;;0.50;0.50;;;;;;;;;;5092301;28;20192;-86
2023/10/31 02:01:24;;;;;;;2.57;1.03;;;;;;;;;;5092295;28;20204;-86
2023/10/31 02:03:51;;;;;;;6.60;1.80;;;;;;;;;;5091649;28;20199;-86
2023/10/31 02:06:21;;;;;;;0.60;0.60;;;;;;;;;;5092077;28;20200;-86
2023/10/31 02:08:50;;;;;;;0.93;0.73;;;;;;;;;;5091624;28;20307;-86
2023/10/31 02:11:18;;;;;;;2.13;1.00;;;;;;;;;;5091784;28;20207;-86
2023/10/31 02:13:47;;;;;;;4.27;0.90;;;;;;;;;;5091687;28;20256;-86
2023/10/31 02:16:16;;;;;;;1.07;1.07;;;;;;;;;;5092078;28;20222;-86
2023/10/31 02:18:45;;;;;;;1.40;0.80;;;;;;;;;;5091974;28;20284;-86
2023/10/31 02:21:14;;;;;;;0.53;0.53;;;;;;;;;;5091627;28;20200;-86
2023/10/31 02:23:44;;;;;;;0.77;0.77;;;;;;;;;;5091712;28;20192;-87
2023/10/31 02:26:12;;;;;;;0.80;0.80;;;;;;;;;;5091342;28;20235;-86
2023/10/31 02:28:41;;;;;;;4.03;1.10;;;;;;;;;;5091529;28;20293;-86
2023/10/31 02:31:09;;;;;;;0.87;0.70;;;;;;;;;;5091691;28;20362;-86
2023/10/31 02:33:39;;;;;;;1.03;0.63;;;;;;;;;;5090895;28;20218;-86
2023/10/31 02:36:07;;;;;;;0.50;0.50;;;;;;;;;;5091862;28;20199;-86
2023/10/31 02:38:36;;;;;;;0.50;0.50;;;;;;;;;;5091802;28;20209;-86
2023/10/31 02:41:06;;;;;;;0.50;0.50;;;;;;;;;;5091566;28;20199;-86
2023/10/31 02:43:34;;;;;;;0.70;0.70;;;;;;;;;;5091176;28;20201;-86
2023/10/31 02:46:03;;;;;;;0.50;0.50;;;;;;;;;;5091993;28;20204;-86
2023/10/31 02:48:37;;;;;;;1.40;0.80;;;;;;;;;;5091852;28;20222;-87
2023/10/31 02:51:06;;;;;;;0.90;0.90;;;;;;;;;;5091306;28;20200;-86
2023/10/31 02:53:35;;;;;;;0.60;0.60;;;;;;;;;;5091080;28;20195;-86
2023/10/31 02:56:04;;;;;;;0.50;0.50;;;;;;;;;;5091612;28;20211;-86
2023/10/31 02:58:34;;;;;;;0.60;0.60;;;;;;;;;;5091719;28;20190;-86
2023/10/31 03:01:02;;;;;;;0.80;0.80;;;;;;;;;;5090977;28;20205;-86
2023/10/31 03:03:30;;;;;;;6.90;1.10;;;;;;;;;;5091659;28;20204;-86
2023/10/31 03:05:59;;;;;;;0.60;0.60;;;;;;;;;;5091416;28;20197;-86
2023/10/31 03:08:28;;;;;;;32.47;2.80;;;;;;;;;;5091580;28;20220;-86
2023/10/31 03:10:56;;;;;;;1.13;1.03;;;;;;;;;;5090977;28;20211;-86
2023/10/31 03:13:25;;;;;;;0.70;0.70;;;;;;;;;;5090741;28;20257;-87
2023/10/31 03:15:54;;;;;;;0.60;0.60;;;;;;;;;;5091605;28;20201;-86
2023/10/31 03:18:23;;;;;;;2.40;2.30;;;;;;;;;;5091256;28;20284;-87
2023/10/31 03:20:51;;;;;;;1.17;1.07;;;;;;;;;;5091010;28;20208;-87
2023/10/31 03:23:20;;;;;;;0.60;0.60;;;;;;;;;;5090809;28;20205;-87
2023/10/31 03:25:48;;;;;;;0.53;0.53;;;;;;;;;;5091145;28;20244;-86
2023/10/31 03:28:20;;;;;;;0.83;0.83;;;;;;;;;;5091408;28;20199;-86
2023/10/31 03:30:48;;;;;;;0.80;0.80;;;;;;;;;;5091126;28;20205;-86
2023/10/31 03:33:18;;;;;;;10.57;1.63;;;;;;;;;;5090903;28;20200;-87
2023/10/31 03:35:47;;;;;;;2.30;0.80;;;;;;;;;;5091242;28;20203;-86
2023/10/31 03:38:16;;;;;;;3.73;1.17;;;;;;;;;;5091215;28;20204;-86
2023/10/31 03:40:44;;;;;;;6.43;0.97;;;;;;;;;;5090424;28;20201;-86
2023/10/31 03:43:13;;;;;;;3.20;0.87;;;;;;;;;;5091020;28;20269;-86
2023/10/31 03:45:41;;;;;;;3.23;1.20;;;;;;;;;;5092873;28;20231;-86
2023/10/31 03:48:10;;;;;;;0.60;0.60;;;;;;;;;;5095004;28;20266;-87
2023/10/31 03:50:40;;;;;;;2.73;1.40;;;;;;;;;;5094123;28;20216;-86
2023/10/31 03:53:08;;;;;;;1.03;0.93;;;;;;;;;;5094580;28;20205;-87
2023/10/31 03:55:37;;;;;;;4.70;0.73;;;;;;;;;;5094598;28;20295;-87
2023/10/31 03:58:06;;;;;;;1.63;1.20;;;;;;;;;;5094775;28;20201;-86
2023/10/31 04:00:34;;;;;;;2.27;1.43;;;;;;;;;;5093946;28;20205;-86
2023/10/31 04:03:03;;;;;;;1.67;1.20;;;;;;;;;;5094098;28;20225;-86
2023/10/31 04:05:31;;;;;;;0.80;0.80;;;;;;;;;;5094475;28;20200;-87
2023/10/31 04:08:01;;;;;;;0.60;0.60;;;;;;;;;;5094192;28;20200;-86
2023/10/31 04:10:30;;;;;;;0.50;0.50;;;;;;;;;;5093606;28;20220;-86
2023/10/31 04:12:58;;;;;;;1.40;1.17;;;;;;;;;;5093890;28;20205;-86
2023/10/31 04:15:27;;;;;;;2.00;1.90;;;;;;;;;;5094255;28;20201;-86
2023/10/31 04:17:55;;;;;;;1.20;1.20;;;;;;;;;;5094366;28;20201;-87
2023/10/31 04:20:24;;;;;;;1.73;1.57;;;;;;;;;;5093451;28;20233;-86
2023/10/31 04:22:52;;;;;;;1.17;1.17;;;;;;;;;;5094367;28;20203;-86
2023/10/31 04:25:22;;;;;;;3.50;1.60;;;;;;;;;;5094310;28;20233;-86
2023/10/31 04:27:50;;;;;;;6.57;2.00;;;;;;;;;;5094326;28;20204;-86
2023/10/31 04:30:19;;;;;;;5.63;2.87;;;;;;;;;;5093226;28;20224;-86
2023/10/31 04:32:47;;;;;;;4.03;1.53;;;;;;;;;;5094034;28;20208;-86
2023/10/31 04:35:16;;;;;;;0.87;0.87;;;;;;;;;;5093994;28;20200;-86
2023/10/31 04:37:44;;;;;;;0.57;0.57;;;;;;;;;;5093658;28;20215;-86
2023/10/31 04:40:13;;;;;;;0.80;0.80;;;;;;;;;;5093267;28;20205;-86
2023/10/31 04:42:43;;;;;;;0.80;0.80;;;;;;;;;;5093740;28;20211;-86
2023/10/31 04:45:12;;;;;;;0.57;0.57;;;;;;;;;;5094322;28;20230;-86
2023/10/31 04:47:40;;;;;;;1.17;1.07;;;;;;;;;;5093582;28;20223;-86
2023/10/31 04:50:09;;;;;;;0.40;0.40;;;;;;;;;;5092980;28;20224;-86
2023/10/31 04:52:38;;;;;;;0.47;0.40;;;;;;;;;;5093092;28;20192;-86
2023/10/31 04:55:07;;;;;;;2.10;0.93;;;;;;;;;;5093670;28;20201;-86
2023/10/31 04:57:35;;;;;;;3.30;1.60;;;;;;;;;;5092942;28;20205;-86
2023/10/31 05:00:06;;;;;;;1.30;1.20;;;;;;;;;;5093025;28;20197;-86
2023/10/31 05:02:36;;;;;;;5.47;2.40;;;;;;;;;;5093497;28;20201;-86
2023/10/31 05:05:04;;;;;;;12.93;1.30;;;;;;;;;;5093367;28;20200;-86
2023/10/31 05:07:33;;;;;;;4.77;2.03;;;;;;;;;;5092839;28;20282;-86
2023/10/31 05:10:02;;;;;;;1.03;1.03;;;;;;;;;;5092504;28;20223;-86
2023/10/31 05:12:30;;;;;;;5.50;1.00;;;;;;;;;;5093128;28;20204;-86
2023/10/31 05:14:59;;;;;;;0.80;0.80;;;;;;;;;;5093217;28;20232;-86
2023/10/31 05:17:29;;;;;;;1.73;1.13;;;;;;;;;;5092481;28;20200;-86
2023/10/31 05:19:57;;;;;;;0.70;0.70;;;;;;;;;;5092919;28;20209;-86
2023/10/31 05:22:26;;;;;;;2.07;1.03;;;;;;;;;;5092881;28;20254;-86
2023/10/31 05:24:54;;;;;;;1.70;1.10;;;;;;;;;;5092902;28;20204;-86
2023/10/31 05:27:23;;;;;;;2.77;1.10;;;;;;;;;;5092445;28;20207;-86
2023/10/31 05:29:51;;;;;;;0.63;0.63;;;;;;;;;;5092990;28;20223;-86
2023/10/31 05:32:20;;;;;;;1.90;1.17;;;;;;;;;;5092401;28;20208;-86
2023/10/31 05:34:50;;;;;;;0.70;0.70;;;;;;;;;;5092591;28;20266;-86
2023/10/31 05:37:18;;;;;;;1.93;1.00;;;;;;;;;;5092285;28;20211;-86
2023/10/31 05:39:47;;;;;;;6.53;1.67;;;;;;;;;;5092767;28;20208;-86
2023/10/31 05:42:15;;;;;;;0.47;0.47;;;;;;;;;;5092299;28;20197;-86
2023/10/31 05:44:43;;;;;;;0.67;0.60;;;;;;;;;;5092943;28;20276;-86
2023/10/31 05:47:12;;;;;;;1.33;0.63;;;;;;;;;;5092069;28;20249;-87
2023/10/31 05:49:40;;;;;;;0.80;0.80;;;;;;;;;;5092285;28;20295;-86
2023/10/31 05:52:11;;;;;;;0.70;0.70;;;;;;;;;;5092216;28;20197;-86
2023/10/31 05:54:39;;;;;;;0.80;0.80;;;;;;;;;;5092453;28;20201;-86
2023/10/31 05:57:07;;;;;;;1.93;0.70;;;;;;;;;;5092161;28;20220;-86
2023/10/31 05:59:36;;;;;;;9.77;1.40;;;;;;;;;;5092207;28;20197;-86
2023/10/31 06:02:04;;;;;;;1.83;1.37;;;;;;;;;;5092154;28;20212;-86
2023/10/31 06:04:33;;;;;;;4.20;1.60;;;;;;;;;;5092300;28;20201;-86
2023/10/31 06:07:02;;;;;;;2.50;0.87;;;;;;;;;;5091668;28;20197;-87
2023/10/31 06:09:33;;;;;;;1.50;0.90;;;;;;;;;;5091869;28;20208;-87
2023/10/31 06:12:01;;;;;;;0.63;0.63;;;;;;;;;;5091924;28;20215;-86
2023/10/31 06:14:29;;;;;;;1.60;0.83;;;;;;;;;;5091872;28;20193;-86
2023/10/31 06:16:59;;;;;;;2.23;0.80;;;;;;;;;;5091528;28;20250;-87
2023/10/31 06:19:28;;;;;;;0.60;0.60;;;;;;;;;;5092010;28;20229;-87
2023/10/31 06:22:01;;;;;;;0.40;0.40;;;;;;;;;;5091947;28;20197;-87
2023/10/31 06:24:31;;;;;;;0.43;0.43;;;;;;;;;;5091432;28;20200;-86
2023/10/31 06:26:59;;;;;;;2.17;0.97;;;;;;;;;;5091345;28;20235;-86
2023/10/31 06:29:29;;;;;;;0.93;0.93;;;;;;;;;;5091850;28;20208;-87
2023/10/31 06:32:17;;;;;;;0.67;0.60;;;;;;;;;;5091539;28;20200;-87
2023/10/31 06:34:46;;;;;;;0.40;0.40;;;;;;;;;;5091186;28;20193;-87
2023/10/31 06:37:14;;;;;;;1.00;0.70;;;;;;;;;;5090927;28;20246;-87
2023/10/31 06:39:44;;;;;;;1.73;0.73;;;;;;;;;;5091709;28;20207;-87
2023/10/31 06:42:12;;;;;;;0.50;0.50;;;;;;;;;;5091699;28;20458;-87
2023/10/31 06:44:41;;;;;;;0.50;0.50;;;;;;;;;;5091587;28;20216;-87
2023/10/31 06:47:09;;;;;;;0.63;0.63;;;;;;;;;;5091453;28;20203;-88
2023/10/31 06:49:41;;;;;;;0.50;0.50;;;;;;;;;;5091979;28;20203;-87
2023/10/31 06:52:09;;;;;;;0.50;0.50;;;;;;;;;;5091849;28;20228;-86
2023/10/31 06:54:38;;;;;;;0.67;0.67;;;;;;;;;;5091684;28;20201;-86
2023/10/31 06:57:08;;;;;;;2.27;2.17;;;;;;;;;;5091601;28;20223;-87
2023/10/31 06:59:36;;;;;;;1.27;1.17;;;;;;;;;;5091940;28;20205;-86
2023/10/31 07:02:04;;;;;;;0.90;0.90;;;;;;;;;;5091604;28;20204;-86
2023/10/31 07:04:33;;;;;;;0.70;0.70;;;;;;;;;;5091406;28;20201;-88
2023/10/31 07:07:02;;;;;;;0.40;0.40;;;;;;;;;;5091608;28;20224;-88
2023/10/31 07:09:30;;;;;;;0.90;0.63;;;;;;;;;;5092478;28;20223;-87
2023/10/31 07:11:59;;;;;;;4.90;4.43;;;;;;;;;;5091378;28;20216;-87
2023/10/31 07:14:28;;;;;;;1.13;0.87;;;;;;;;;;5091150;28;20208;-87
2023/10/31 07:16:57;;;;;;;0.40;0.40;;;;;;;;;;5091328;28;20201;-88
2023/10/31 07:19:26;;;;;;;0.57;0.57;;;;;;;;;;5092601;28;20233;-88
2023/10/31 07:21:55;;;;;;;1.13;0.93;;;;;;;;;;5095488;28;20208;-88
2023/10/31 07:24:24;;;;;;;4.00;1.83;;;;;;;;;;5094920;28;20204;-87
2023/10/31 07:26:52;;;;;;;1.60;0.97;;;;;;;;;;5095209;28;20250;-87
2023/10/31 07:29:21;;;;;;;0.60;0.60;;;;;;;;;;5095138;28;20201;-88
2023/10/31 07:31:51;;;;;;;0.40;0.40;;;;;;;;;;5094918;28;20478;-88
2023/10/31 07:34:20;;;;;;;0.40;0.40;;;;;;;;;;5094723;28;20207;-87
2023/10/31 07:36:48;;;;;;;0.70;0.70;;;;;;;;;;5095259;28;20206;-87
2023/10/31 07:39:17;;;;;;;0.90;0.90;;;;;;;;;;5095179;28;20200;-87
2023/10/31 07:41:45;;;;;;;0.60;0.60;;;;;;;;;;5094696;28;20196;-87
2023/10/31 07:44:14;;;;;;;0.40;0.40;;;;;;;;;;5094411;28;20247;-88
2023/10/31 07:46:42;;;;;;;0.70;0.70;;;;;;;;;;5094839;28;20197;-87
2023/10/31 07:49:12;;;;;;;0.43;0.43;;;;;;;;;;5095064;28;20205;-87
2023/10/31 07:51:40;;;;;;;0.50;0.50;;;;;;;;;;5094449;28;20228;-87
2023/10/31 07:54:09;;;;;;;0.53;0.53;;;;;;;;;;5094150;28;20243;-88
2023/10/31 07:56:39;;;;;;;0.50;0.50;;;;;;;;;;5095315;28;20295;-89
2023/10/31 07:59:08;;;;;;;0.73;0.73;;;;;;;;;;5094864;28;20258;-90
2023/10/31 08:01:37;;;;;;;0.40;0.40;;;;;;;;;;5095033;28;20195;-89
2023/10/31 08:04:06;;;;;;;0.50;0.50;;;;;;;;;;5094532;28;20306;-90
2023/10/31 08:06:36;;;;;;;0.50;0.50;;;;;;;;;;5094845;28;20201;-90
2023/10/31 08:09:04;;;;;;;0.53;0.53;;;;;;;;;;5095232;28;20211;-90
2023/10/31 08:11:36;;;;;;;0.70;0.70;;;;;;;;;;5094233;28;20216;-88
2023/10/31 08:14:05;;;;;;;0.60;0.60;;;;;;;;;;5094383;28;20206;-90
2023/10/31 08:16:34;;;;;;;0.40;0.40;;;;;;;;;;5094731;28;20251;-90
2023/10/31 08:19:03;;;;;;;0.40;0.40;;;;;;;;;;5094556;28;20252;-90
2023/10/31 08:21:38;;;;;;;0.40;0.40;;;;;;;;;;5094012;28;20193;-90
2023/10/31 08:24:07;;;;;;;0.40;0.40;;;;;;;;;;5076469;28;20207;-90
2023/10/31 08:26:35;;;;;;;0.40;0.40;;;;;;;;;;5094500;28;20228;-89
2023/10/31 08:29:04;;;;;;;0.40;0.40;;;;;;;;;;5094686;28;20206;-90
2023/10/31 08:31:33;;;;;;;3.73;0.50;;;;;;;;;;5093120;28;20326;-90
2023/10/31 08:34:01;;;;;;;0.57;0.57;;;;;;;;;;5094236;28;20296;-90
2023/10/31 08:36:31;;;;;;;2.43;0.77;;;;;;;;;;5094233;28;20215;-90
2023/10/31 08:39:01;;;;;;;0.50;0.50;;;;;;;;;;5094263;28;20252;-91
2023/10/31 08:41:29;;;;;;;0.87;0.47;;;;;;;;;;5094248;28;20204;-89
2023/10/31 08:43:59;;;;;;;0.40;0.40;;;;;;;;;;5093843;28;20204;-91
2023/10/31 08:46:28;;;;;;;0.53;0.53;;;;;;;;;;5094368;28;20204;-90
2023/10/31 08:48:56;;;;;;;1.73;0.90;;;;;;;;;;5094135;28;20205;-90
2023/10/31 08:51:25;;;;;;;0.60;0.60;;;;;;;;;;5093465;28;20212;-91
2023/10/31 08:53:53;;;;;;;0.90;0.90;;;;;;;;;;5093844;28;20226;-91
2023/10/31 08:56:23;;;;;;;0.50;0.50;;;;;;;;;;5093764;28;20197;-90
2023/10/31 08:58:51;;;;;;;0.40;0.40;;;;;;;;;;5093596;28;20196;-90
2023/10/31 09:01:20;;;;;;;0.30;0.30;;;;;;;;;;5093090;28;20252;-90
2023/10/31 09:03:49;;;;;;;0.70;0.70;;;;;;;;;;5093640;28;20200;-90
2023/10/31 09:06:16;;;;;;;2.83;0.73;;;;;;;;;;5093881;28;20201;-90
2023/10/31 09:08:45;;;;;;;0.40;0.40;;;;;;;;;;5093672;28;20214;-91
2023/10/31 09:11:14;;;;;;;1.83;1.73;;;;;;;;;;5092648;28;20197;-90
2023/10/31 09:13:45;;;;;;;0.40;0.40;;;;;;;;;;5093663;28;20266;-89
2023/10/31 09:16:21;;;;;;;0.60;0.60;;;;;;;;;;5093093;28;20185;-89
2023/10/31 09:18:50;;;;;;;0.30;0.30;;;;;;;;;;5093052;28;20228;-90
2023/10/31 09:21:18;;;;;;;0.30;0.30;;;;;;;;;;5092532;28;20202;-89
2023/10/31 09:23:47;;;;;;;0.40;0.40;;;;;;;;;;5093100;28;20292;-89
2023/10/31 09:26:15;;;;;;;0.30;0.30;;;;;;;;;;5092981;28;20241;-89
2023/10/31 09:28:49;;;;;;;1.67;0.47;;;;;;;;;;5092891;28;20201;-90
2023/10/31 09:31:18;;;;;;;3.60;0.60;;;;;;;;;;5092243;28;20196;-89
2023/10/31 09:33:50;;;;;;;3.30;0.93;;;;;;;;;;5092953;28;20232;-90
2023/10/31 09:36:18;;;;;;;0.30;0.30;;;;;;;;;;5092720;28;20201;-90
2023/10/31 09:38:47;;;;;;;0.83;0.77;;;;;;;;;;5093370;28;20288;-90
2023/10/31 09:41:15;;;;;;;0.37;0.37;;;;;;;;;;5092084;28;20208;-89
2023/10/31 09:43:47;;;;;;;1.40;0.63;;;;;;;;;;5091756;28;20200;-89
2023/10/31 09:46:15;;;;;;;0.63;0.63;;;;;;;;;;5093154;28;20412;-90
2023/10/31 09:48:47;;;;;;;0.30;0.30;;;;;;;;;;5092676;28;20202;-89
2023/10/31 09:51:16;;;;;;;0.40;0.40;;;;;;;;;;5092008;28;20215;-89
2023/10/31 09:53:46;;;;;;;0.30;0.30;;;;;;;;;;5092329;28;20230;-89
2023/10/31 09:56:16;;;;;;;0.73;0.60;;;;;;;;;;5092984;28;20196;-90
2023/10/31 09:58:46;;;;;;;0.40;0.40;;;;;;;;;;5092562;28;20262;-89
2023/10/31 10:01:15;;;;;;;0.37;0.37;;;;;;;;;;5092139;28;20205;-87
2023/10/31 10:03:44;;;;;;;0.30;0.30;;;;;;;;;;5092516;28;20198;-88
2023/10/31 10:06:12;;;;;;;0.50;0.50;;;;;;;;;;5092139;28;20198;-86
2023/10/31 10:08:41;;;;;;;0.87;0.67;;;;;;;;;;5092190;28;20264;-88
2023/10/31 10:11:09;;;;;;;0.30;0.30;;;;;;;;;;5091335;28;20192;-88
2023/10/31 10:13:38;;;;;;;0.77;0.77;;;;;;;;;;5092423;28;20212;-88
2023/10/31 10:16:11;;;;;;;0.50;0.50;;;;;;;;;;5092240;28;20200;-88
2023/10/31 10:18:40;;;;;;;0.47;0.47;;;;;;;;;;5091902;28;20285;-88
2023/10/31 10:21:09;;;;;;;0.50;0.50;;;;;;;;;;5091628;28;20202;-89
2023/10/31 10:23:38;;;;;;;0.30;0.30;;;;;;;;;;5092667;28;20201;-89
2023/10/31 10:26:07;;;;;;;0.30;0.30;;;;;;;;;;5091526;28;20306;-89
2023/10/31 10:28:35;;;;;;;0.43;0.43;;;;;;;;;;5091634;28;20291;-88
2023/10/31 10:31:06;;;;;;;0.30;0.30;;;;;;;;;;5092248;28;20216;-88
2023/10/31 10:33:36;;;;;;;1.00;0.60;;;;;;;;;;5091920;28;20219;-89
2023/10/31 10:36:05;;;;;;;3.00;0.70;;;;;;;;;;5092270;28;20195;-88
2023/10/31 10:38:35;;;;;;;0.30;0.30;;;;;;;;;;5090857;28;20193;-90
2023/10/31 10:41:06;;;;;;;0.50;0.50;;;;;;;;;;5091791;28;20196;-89
2023/10/31 10:43:38;;;;;;;0.50;0.50;;;;;;;;;;5091777;28;20201;-90
2023/10/31 10:46:10;;;;;;;0.40;0.40;;;;;;;;;;5091996;28;20212;-89
2023/10/31 10:48:40;;;;;;;0.30;0.30;;;;;;;;;;5090677;28;20294;-89
2023/10/31 10:51:13;;;;;;;0.43;0.43;;;;;;;;;;5092068;28;20292;-90
2023/10/31 10:53:46;;;;;;;0.47;0.47;;;;;;;;;;5091549;28;20209;-89
2023/10/31 10:56:18;;;;;;;0.40;0.40;;;;;;;;;;5095719;28;20225;-88
2023/10/31 10:58:57;;;;;;;0.37;0.37;;;;;;;;;;5095451;28;20213;-90
2023/10/31 11:01:27;;;;;;;2.30;0.70;;;;;;;;;;5095948;28;20196;-89
2023/10/31 11:03:58;;;;;;;0.40;0.40;;;;;;;;;;5095869;28;20197;-89
2023/10/31 11:06:27;;;;;;;2.97;1.27;;;;;;;;;;5095890;28;20214;-89
2023/10/31 11:08:57;;;;;;;0.63;0.63;;;;;;;;;;5095432;28;20207;-89
2023/10/31 11:11:26;;;;;;;0.50;0.50;;;;;;;;;;5096022;28;20203;-87
2023/10/31 11:13:56;;;;;;;0.40;0.40;;;;;;;;;;5095831;28;20218;-90
2023/10/31 11:16:28;;;;;;;3.20;1.37;;;;;;;;;;5094860;28;20292;-90
2023/10/31 11:18:58;;;;;;;0.50;0.50;;;;;;;;;;5095436;28;20229;-90
2023/10/31 11:21:29;;;;;;;0.30;0.30;;;;;;;;;;5095853;28;20205;-90
2023/10/31 11:24:01;;;;;;;0.40;0.40;;;;;;;;;;5096464;28;20211;-91
2023/10/31 11:26:32;;;;;;;0.40;0.40;;;;;;;;;;5094850;28;20233;-90
2023/10/31 11:29:08;;;;;;;2.07;1.97;;;;;;;;;;5095174;28;20186;-91
2023/10/31 11:31:39;;;;;;;0.30;0.30;;;;;;;;;;5095981;28;20230;-90
2023/10/31 11:34:09;;;;;;;0.67;0.63;;;;;;;;;;5095506;28;20233;-90
2023/10/31 11:36:38;;;;;;;0.30;0.30;;;;;;;;;;5094934;28;20199;-91
2023/10/31 11:39:14;;;;;;;0.33;0.33;;;;;;;;;;5095540;28;20267;-90
2023/10/31 11:41:47;;;;;;;1.00;1.00;;;;;;;;;;5094307;28;20211;-92
2023/10/31 11:44:16;;;;;;;0.43;0.43;;;;;;;;;;5084528;28;20223;-89
2023/10/31 11:46:48;;;;;;;2.63;0.60;;;;;;;;;;5079184;28;20333;-89
2023/10/31 11:49:35;;;;;;;0.30;0.30;;;;;;;;;;5091192;28;20206;-87
2023/10/31 11:52:16;;;;;;;0.93;0.50;;;;;;;;;;5086534;28;20194;-87
2023/10/31 11:55:16;;;;;;;0.30;0.30;;;;;;;;;;4999511;28;20208;-91
2023/10/31 11:57:44;;;;;;;0.60;0.60;;;;;;;;;;5090085;28;20203;-88
2023/10/31 12:00:21;;;;;;;0.30;0.30;;;;;;;;;;5086628;28;20207;-87
2023/10/31 12:02:59;;;;;;;0.30;0.30;;;;;;;;;;5081658;28;20208;-88
2023/10/31 12:05:27;;;;;;;0.30;0.30;;;;;;;;;;5080271;28;20238;-87
2023/10/31 12:08:11;;;;;;;0.40;0.40;;;;;;;;;;5086812;28;20205;-87
2023/10/31 12:10:46;;;;;;;0.30;0.30;;;;;;;;;;5083932;28;20231;-88
2023/10/31 12:13:15;;;;;;;0.30;0.30;;;;;;;;;;5079113;28;20223;-86
2023/10/31 12:15:53;;;;;;;0.70;0.70;;;;;;;;;;5078470;28;20204;-87
2023/10/31 12:18:22;;;;;;;1.00;0.60;;;;;;;;;;5086114;28;20207;-85
2023/10/31 12:20:53;;;;;;;0.30;0.30;;;;;;;;;;5084928;28;20219;-85
2023/10/31 12:23:21;;;;;;;0.30;0.30;;;;;;;;;;5084874;28;20215;-85
2023/10/31 12:25:52;;;;;;;0.50;0.50;;;;;;;;;;5083908;28;20240;-86
2023/10/31 12:28:21;;;;;;;0.40;0.40;;;;;;;;;;5086248;28;20232;-84
2023/10/31 12:30:51;;;;;;;0.43;0.43;;;;;;;;;;5081446;28;20223;-84
2023/10/31 12:33:20;;;;;;;2.17;0.70;;;;;;;;;;5082354;28;20212;-86
2023/10/31 12:35:54;;;;;;;0.53;0.53;;;;;;;;;;5085550;28;20236;-85
2023/10/31 12:38:24;;;;;;;0.40;0.40;;;;;;;;;;5091411;28;20283;-85
2023/10/31 12:41:00;;;;;;;0.30;0.30;;;;;;;;;;5081465;28;20245;-86
2023/10/31 12:43:32;;;;;;;0.30;0.30;;;;;;;;;;5083586;28;20258;-87
2023/10/31 12:46:21;;;;;;;0.40;0.40;;;;;;;;;;5086775;28;20295;-85
2023/10/31 12:48:49;;;;;;;0.60;0.60;;;;;;;;;;5080332;28;20232;-85
2023/10/31 12:51:18;;;;;;;0.73;0.73;;;;;;;;;;5083253;28;20200;-86
2023/10/31 12:53:50;;;;;;;0.40;0.40;;;;;;;;;;5086232;28;20215;-85
2023/10/31 12:56:33;;;;;;;0.30;0.30;;;;;;;;;;5083856;28;20222;-85
2023/10/31 12:59:03;;;;;;;0.60;0.60;;;;;;;;;;5084852;28;20215;-85
2023/10/31 13:01:32;;;;;;;0.30;0.30;;;;;;;;;;5082183;28;20215;-85
2023/10/31 13:04:01;;;;;;;0.30;0.30;;;;;;;;;;5086382;28;20205;-85
2023/10/31 13:06:30;;;;;;;0.30;0.30;;;;;;;;;;5088994;28;20214;-86
2023/10/31 13:08:59;;;;;;;2.00;0.70;;;;;;;;;;5084185;28;20208;-85
2023/10/31 13:11:31;;;;;;;0.30;0.30;;;;;;;;;;5085440;28;20256;-85
2023/10/31 13:14:00;;;;;;;0.70;0.70;;;;;;;;;;5087008;28;20248;-85
2023/10/31 13:16:30;;;;;;;0.30;0.30;;;;;;;;;;5086409;28;20225;-85
2023/10/31 13:18:58;;;;;;;0.37;0.37;;;;;;;;;;5090002;28;20230;-85
2023/10/31 13:21:38;;;;;;;0.30;0.30;;;;;;;;;;5089131;28;20207;-85
2023/10/31 13:24:20;;;;;;;0.30;0.30;;;;;;;;;;5088969;28;20240;-85
2023/10/31 13:26:51;;;;;;;0.30;0.30;;;;;;;;;;5084637;28;20236;-84
2023/10/31 13:29:20;;;;;;;0.43;0.43;;;;;;;;;;5085040;28;20237;-85
2023/10/31 13:32:26;;;;;;;0.63;0.63;;;;;;;;;;5083766;28;20217;-85
2023/10/31 13:34:56;;;;;;;0.50;0.50;;;;;;;;;;5082984;28;20214;-83
2023/10/31 13:37:25;;;;;;;0.30;0.30;;;;;;;;;;5084745;28;20211;-84
2023/10/31 13:39:57;;;;;;;1.20;0.87;;;;;;;;;;5086981;28;20208;-85
2023/10/31 13:42:29;;;;;;;0.50;0.50;;;;;;;;;;5086241;28;20211;-85
2023/10/31 13:45:07;;;;;;;0.30;0.30;;;;;;;;;;5093312;28;20273;-87
2023/10/31 13:47:37;;;;;;;0.43;0.43;;;;;;;;;;5089791;28;20212;-86
2023/10/31 13:50:09;;;;;;;0.30;0.30;;;;;;;;;;5084130;28;20210;-87
2023/10/31 13:52:50;;;;;;;0.30;0.30;;;;;;;;;;5079112;28;20226;-87
2023/10/31 13:55:25;;;;;;;0.30;0.30;;;;;;;;;;5075432;28;20192;-87
2023/10/31 13:58:00;;;;;;;0.30;0.30;;;;;;;;;;5077443;28;20224;-87
2023/10/31 14:00:38;;;;;;;0.30;0.30;;;;;;;;;;5078202;28;20298;-86
2023/10/31 14:03:15;;;;;;;0.30;0.30;;;;;;;;;;5087514;28;20259;-85
2023/10/31 14:05:46;;;;;;;0.40;0.40;;;;;;;;;;5089936;28;20320;-85
2023/10/31 14:08:15;;;;;;;0.40;0.40;;;;;;;;;;5086218;28;20210;-85
2023/10/31 14:10:45;;;;;;;0.70;0.70;;;;;;;;;;5080694;28;20214;-85
2023/10/31 14:13:14;;;;;;;0.70;0.70;;;;;;;;;;5074017;28;20241;-85
2023/10/31 14:15:43;;;;;;;0.47;0.47;;;;;;;;;;5084285;28;20211;-85
2023/10/31 14:18:12;;;;;;;0.53;0.53;;;;;;;;;;5088112;28;20289;-85
2023/10/31 14:20:41;;;;;;;0.50;0.50;;;;;;;;;;5089313;28;20202;-87
2023/10/31 14:23:11;;;;;;;5.50;0.80;;;;;;;;;;5082678;28;20294;-86
2023/10/31 14:25:41;;;;;;;1.83;1.67;;;;;;;;;;5089103;28;20263;-88
2023/10/31 14:28:11;;;;;;;3.17;1.10;;;;;;;;;;5089895;28;20201;-88
2023/10/31 14:30:40;;;;;;;3.13;1.50;;;;;;;;;;5079724;28;20193;-87
2023/10/31 14:33:26;;;;;;;0.40;0.40;;;;;;;;;;5571889;22;20294;-86
2023/10/31 14:35:55;;;;;;;0.87;0.70;;;;;;;;;;5011297;28;20208;-84
2023/10/31 14:38:26;;;;;;;1.60;0.90;;;;;;;;;;5010778;28;20207;-84
2023/10/31 14:40:57;;;;;;;0.50;0.50;;;;;;;;;;5003362;28;20273;-84
2023/10/31 14:43:26;;;;;;;2.83;0.60;;;;;;;;;;5013735;28;20203;-84
2023/10/31 14:45:55;;;;;;;1.37;0.93;;;;;;;;;;5011295;28;20256;-85
2023/10/31 14:48:24;;;;;;;0.40;0.40;;;;;;;;;;5010631;28;20207;-85
2023/10/31 14:50:52;;;;;;;0.53;0.53;;;;;;;;;;5010108;28;20212;-83
2023/10/31 14:53:21;;;;;;;0.60;0.60;;;;;;;;;;5016594;28;20275;-87
2023/10/31 14:55:51;;;;;;;0.40;0.40;;;;;;;;;;5013878;28;20261;-86
2023/10/31 14:58:19;;;;;;;0.90;0.90;;;;;;;;;;5011434;28;20210;-86
2023/10/31 15:00:50;;;;;;;3.40;1.30;;;;;;;;;;5007293;28;20200;-86